Time;durP1;ratioP1;P1;durP2;ratioP2;P2;SDS_P1;SDS_P2;PMS_P1;PMS_P2;Temp;Humidity;BMP_temperature;BMP_pressure;BME280_temperature;BME280_humidity;BME280_pressure;Samples;Min_cycle;Max_cycle;Signal;HPM_P1;HPM_P2
2022/02/23 00:01:06;;;;;;;;;;;21.50;99.90;;;;;;5072952;28;20406;-72
2022/02/23 00:03:33;;;;;;;;;;;21.70;99.90;;;;;;5073405;28;19962;-70
2022/02/23 00:05:59;;;;;;;;;;;21.70;99.90;;;;;;5073023;28;19913;-72
2022/02/23 00:08:26;;;;;;;;;;;21.70;99.90;;;;;;5073306;28;19908;-71
2022/02/23 00:10:53;;;;;;;;;;;21.70;99.90;;;;;;5073205;28;19915;-72
2022/02/23 00:13:19;;;;;;;;;;;21.80;99.90;;;;;;5073473;28;19909;-73
2022/02/23 00:15:46;;;;;;;;;;;21.70;99.90;;;;;;5073250;28;19993;-73
2022/02/23 00:18:15;;;;;;;;;;;21.40;99.90;;;;;;5073187;28;19969;-72
2022/02/23 00:20:42;;;;;;;;;;;21.30;99.90;;;;;;5073044;28;19916;-73
2022/02/23 00:23:08;;;;;;;;;;;21.30;99.90;;;;;;5073161;28;19932;-72
2022/02/23 00:25:35;;;;;;;;;;;21.30;99.90;;;;;;5072541;28;19908;-72
2022/02/23 00:28:02;;;;;;;;;;;21.30;99.90;;;;;;5072886;28;19913;-70
2022/02/23 00:30:28;;;;;;;;;;;21.30;99.90;;;;;;5072968;28;20240;-72
2022/02/23 00:32:55;;;;;;;;;;;21.30;99.90;;;;;;5073006;28;19958;-71
2022/02/23 00:35:22;;;;;;;;;;;21.20;99.90;;;;;;5072427;28;20298;-72
2022/02/23 00:37:48;;;;;;;;;;;21.20;99.90;;;;;;5072831;28;19970;-71
2022/02/23 00:40:17;;;;;;;;;;;21.30;99.90;;;;;;5071680;28;19931;-73
2022/02/23 00:42:44;;;;;;;;;;;21.50;99.90;;;;;;5104891;28;19935;-74
2022/02/23 00:45:10;;;;;;;;;;;21.50;99.90;;;;;;5105287;28;20246;-73
2022/02/23 00:47:39;;;;;;;;;;;21.60;99.90;;;;;;5072806;28;20347;-72
2022/02/23 00:50:06;;;;;;;;;;;21.80;99.90;;;;;;5072488;28;19915;-72
2022/02/23 00:52:32;;;;;;;;;;;21.80;99.90;;;;;;5072568;28;20289;-73
2022/02/23 00:54:59;;;;;;;;;;;21.90;99.90;;;;;;5072723;28;19947;-72
2022/02/23 00:57:26;;;;;;;;;;;21.90;99.90;;;;;;5072607;28;20295;-72
2022/02/23 00:59:52;;;;;;;;;;;22.00;99.90;;;;;;5072319;28;20270;-73
2022/02/23 01:02:20;;;;;;;;;;;22.20;99.90;;;;;;5072759;28;19918;-72
2022/02/23 01:04:46;;;;;;;;;;;22.20;99.90;;;;;;5072546;28;20020;-73
2022/02/23 01:07:14;;;;;;;;;;;22.40;99.90;;;;;;5072243;28;19908;-73
2022/02/23 01:09:41;;;;;;;;;;;22.60;99.90;;;;;;5072398;28;19916;-73
2022/02/23 01:12:08;;;;;;;;;;;22.30;99.90;;;;;;5072312;28;19999;-72
2022/02/23 01:14:35;;;;;;;;;;;22.30;99.90;;;;;;5104851;28;19935;-72
2022/02/23 01:17:01;;;;;;;;;;;22.20;99.90;;;;;;5072287;28;19908;-73
2022/02/23 01:19:28;;;;;;;;;;;22.30;99.90;;;;;;5072046;28;19915;-73
2022/02/23 01:21:55;;;;;;;;;;;22.30;99.90;;;;;;5072127;28;20256;-72
2022/02/23 01:24:21;;;;;;;;;;;22.40;99.90;;;;;;5072387;28;20416;-72
2022/02/23 01:26:48;;;;;;;;;;;22.40;99.90;;;;;;5072339;28;20274;-72
2022/02/23 01:29:15;;;;;;;;;;;22.60;99.90;;;;;;5072253;28;19908;-73
2022/02/23 01:31:41;;;;;;;;;;;22.70;99.90;;;;;;5072324;28;19908;-73
2022/02/23 01:34:08;;;;;;;;;;;22.60;99.90;;;;;;5072092;28;20004;-72
2022/02/23 01:36:35;;;;;;;;;;;22.70;99.90;;;;;;5072103;28;19908;-72
2022/02/23 01:39:02;;;;;;;;;;;22.70;99.90;;;;;;5072423;28;19909;-72
2022/02/23 01:41:28;;;;;;;;;;;22.70;99.90;;;;;;5072330;28;19920;-72
2022/02/23 01:43:55;;;;;;;;;;;22.60;99.90;;;;;;5071927;28;19967;-73
2022/02/23 01:46:22;;;;;;;;;;;22.60;99.90;;;;;;5072116;28;19959;-72
2022/02/23 01:48:49;;;;;;;;;;;22.60;99.90;;;;;;5075200;28;19909;-73
2022/02/23 01:51:15;;;;;;;;;;;22.50;99.90;;;;;;5108428;28;19913;-73
2022/02/23 01:53:42;;;;;;;;;;;22.50;99.90;;;;;;5075818;28;19908;-72
2022/02/23 01:56:09;;;;;;;;;;;22.50;99.90;;;;;;5075785;28;19947;-72
2022/02/23 01:58:36;;;;;;;;;;;22.60;99.90;;;;;;5075830;28;19955;-73
2022/02/23 02:01:03;;;;;;;;;;;22.70;99.90;;;;;;5075725;28;20440;-72
2022/02/23 02:03:33;;;;;;;;;;;22.60;99.90;;;;;;5075877;28;19908;-72
2022/02/23 02:05:59;;;;;;;;;;;22.50;99.90;;;;;;5075540;28;19916;-72
2022/02/23 02:08:26;;;;;;;;;;;22.40;99.90;;;;;;5075576;28;19947;-72
2022/02/23 02:10:53;;;;;;;;;;;22.40;99.90;;;;;;5075661;28;19916;-73
2022/02/23 02:13:19;;;;;;;;;;;22.50;99.90;;;;;;5075696;28;19913;-72
2022/02/23 02:15:46;;;;;;;;;;;22.50;99.90;;;;;;5075303;28;20011;-72
2022/02/23 02:18:13;;;;;;;;;;;22.50;99.90;;;;;;5075361;28;19969;-72
2022/02/23 02:20:40;;;;;;;;;;;22.60;99.90;;;;;;5075159;28;19921;-72
2022/02/23 02:23:06;;;;;;;;;;;22.50;99.90;;;;;;5075461;28;19909;-72
2022/02/23 02:25:33;;;;;;;;;;;22.60;99.90;;;;;;5075354;28;19996;-72
2022/02/23 02:28:00;;;;;;;;;;;22.60;99.90;;;;;;5074881;28;19916;-72
2022/02/23 02:30:26;;;;;;;;;;;22.50;99.90;;;;;;5075057;28;19992;-73
2022/02/23 02:32:53;;;;;;;;;;;22.70;99.90;;;;;;5075070;28;19973;-73
2022/02/23 02:35:20;;;;;;;;;;;23.00;99.90;;;;;;5074868;28;20061;-73
2022/02/23 02:37:46;;;;;;;;;;;23.00;99.90;;;;;;5074883;28;19909;-73
2022/02/23 02:40:13;;;;;;;;;;;23.10;99.90;;;;;;5074835;28;19912;-72
2022/02/23 02:42:40;;;;;;;;;;;23.10;99.90;;;;;;5075162;28;19955;-73
2022/02/23 02:45:07;;;;;;;;;;;23.30;99.90;;;;;;5074693;28;19908;-73
2022/02/23 02:47:34;;;;;;;;;;;23.30;99.90;;;;;;5074862;28;19942;-73
2022/02/23 02:50:00;;;;;;;;;;;23.20;99.90;;;;;;5074508;28;19912;-74
2022/02/23 02:52:27;;;;;;;;;;;23.10;99.90;;;;;;5074789;28;19920;-73
2022/02/23 02:54:54;;;;;;;;;;;23.00;99.90;;;;;;5074936;28;19908;-74
2022/02/23 02:57:20;;;;;;;;;;;23.10;99.90;;;;;;5074747;28;19908;-72
2022/02/23 02:59:47;;;;;;;;;;;23.20;99.90;;;;;;5073721;28;20007;-72
2022/02/23 03:02:13;;;;;;;;;;;23.20;99.90;;;;;;5074934;28;19947;-73
2022/02/23 03:04:40;;;;;;;;;;;23.30;99.90;;;;;;5074379;28;20375;-73
2022/02/23 03:07:07;;;;;;;;;;;23.20;99.90;;;;;;5074602;28;19953;-72
2022/02/23 03:09:33;;;;;;;;;;;23.10;99.90;;;;;;5074422;28;19962;-74
2022/02/23 03:12:00;;;;;;;;;;;23.20;99.90;;;;;;5074130;28;19912;-74
2022/02/23 03:14:27;;;;;;;;;;;23.10;99.90;;;;;;5074384;28;20550;-74
2022/02/23 03:16:53;;;;;;;;;;;23.30;99.90;;;;;;5074368;28;19915;-74
2022/02/23 03:19:20;;;;;;;;;;;23.20;99.90;;;;;;5074127;28;20007;-74
2022/02/23 03:21:47;;;;;;;;;;;23.00;99.90;;;;;;5074193;28;20002;-74
2022/02/23 03:24:13;;;;;;;;;;;22.90;99.90;;;;;;5074192;28;20002;-73
2022/02/23 03:26:40;;;;;;;;;;;22.80;99.90;;;;;;5074226;28;20256;-73
2022/02/23 03:29:07;;;;;;;;;;;22.80;99.90;;;;;;5074240;28;19975;-72
2022/02/23 03:31:33;;;;;;;;;;;22.90;99.90;;;;;;5075193;28;20003;-72
2022/02/23 03:34:00;;;;;;;;;;;22.70;99.90;;;;;;5076109;28;19912;-72
2022/02/23 03:36:26;;;;;;;;;;;22.80;99.90;;;;;;5075742;28;19917;-73
2022/02/23 03:38:54;;;;;;;;;;;22.80;99.90;;;;;;5073956;28;19913;-72
2022/02/23 03:41:21;;;;;;;;;;;22.80;99.90;;;;;;5073919;28;19920;-73
2022/02/23 03:43:48;;;;;;;;;;;22.90;99.90;;;;;;5073466;28;20277;-72
2022/02/23 03:46:15;;;;;;;;;;;23.00;99.90;;;;;;5073670;28;19947;-72
2022/02/23 03:48:41;;;;;;;;;;;23.00;99.90;;;;;;5073601;28;19908;-73
2022/02/23 03:51:08;;;;;;;;;;;22.90;99.90;;;;;;5073541;28;19999;-72
2022/02/23 03:53:35;;;;;;;;;;;23.00;99.90;;;;;;5073632;28;20007;-72
2022/02/23 03:56:02;;;;;;;;;;;22.80;99.90;;;;;;5073334;28;19909;-72
2022/02/23 03:58:28;;;;;;;;;;;22.90;99.90;;;;;;5073306;28;19955;-72
2022/02/23 04:00:55;;;;;;;;;;;22.80;99.90;;;;;;5073322;28;19928;-72
2022/02/23 04:03:22;;;;;;;;;;;22.90;99.90;;;;;;5073694;28;20363;-73
2022/02/23 04:05:48;;;;;;;;;;;23.00;99.90;;;;;;5073067;28;19916;-73
2022/02/23 04:08:15;;;;;;;;;;;22.90;99.90;;;;;;5073302;28;20313;-73
2022/02/23 04:10:41;;;;;;;;;;;22.80;99.90;;;;;;5104938;28;20327;-72
2022/02/23 04:13:08;;;;;;;;;;;22.90;99.90;;;;;;5073141;28;19909;-73
2022/02/23 04:15:36;;;;;;;;;;;22.70;99.90;;;;;;5072852;28;19908;-73
2022/02/23 04:18:02;;;;;;;;;;;22.80;99.90;;;;;;5105508;28;19909;-73
2022/02/23 04:20:29;;;;;;;;;;;22.80;99.90;;;;;;5072774;28;19923;-73
2022/02/23 04:22:56;;;;;;;;;;;22.90;99.90;;;;;;5073071;28;20025;-73
2022/02/23 04:25:23;;;;;;;;;;;23.00;99.90;;;;;;5072977;28;19913;-73
2022/02/23 04:27:49;;;;;;;;;;;23.00;99.90;;;;;;5072769;28;19978;-73
2022/02/23 04:30:16;;;;;;;;;;;23.00;99.90;;;;;;5072904;28;20317;-73
2022/02/23 04:32:43;;;;;;;;;;;23.20;99.90;;;;;;5072911;28;19959;-73
2022/02/23 04:35:09;;;;;;;;;;;23.10;99.90;;;;;;5072814;28;19973;-73
2022/02/23 04:37:36;;;;;;;;;;;23.30;99.90;;;;;;5072735;28;20003;-73
2022/02/23 04:40:03;;;;;;;;;;;23.50;99.90;;;;;;5105062;28;20397;-73
2022/02/23 04:42:29;;;;;;;;;;;23.90;99.90;;;;;;5072983;28;20349;-73
2022/02/23 04:45:00;;;;;;;;;;;24.00;99.90;;;;;;5105227;28;20279;-73
2022/02/23 04:47:27;;;;;;;;;;;23.80;99.90;;;;;;5072826;28;19909;-73
2022/02/23 04:49:54;;;;;;;;;;;23.80;99.90;;;;;;5072579;28;19912;-73
2022/02/23 04:52:21;;;;;;;;;;;23.60;99.90;;;;;;5072709;28;19992;-72
2022/02/23 04:54:47;;;;;;;;;;;23.30;99.90;;;;;;5072718;28;19909;-72
2022/02/23 04:57:14;;;;;;;;;;;22.90;99.90;;;;;;5072637;28;20358;-73
2022/02/23 04:59:41;;;;;;;;;;;22.50;99.90;;;;;;5072545;28;19913;-72
2022/02/23 05:02:09;;;;;;;;;;;22.50;99.90;;;;;;5072360;28;19912;-73
2022/02/23 05:07:08;;;;;;;;;;;22.30;99.90;;;;;;4996575;28;19926;-73
2022/02/23 05:09:37;;;;;;;;;;;22.40;99.90;;;;;;5013110;28;19910;-73
2022/02/23 05:12:05;;;;;;;;;;;22.20;99.90;;;;;;5012908;28;19909;-73
2022/02/23 05:14:31;;;;;;;;;;;22.20;99.90;;;;;;5012546;28;20252;-73
2022/02/23 05:16:58;;;;;;;;;;;22.20;99.90;;;;;;5012595;28;19913;-73
2022/02/23 05:19:25;;;;;;;;;;;22.20;99.90;;;;;;5012352;28;19933;-73
2022/02/23 05:21:51;;;;;;;;;;;22.60;99.90;;;;;;5014158;28;19917;-73
2022/02/23 05:24:18;;;;;;;;;;;22.80;99.90;;;;;;5016742;28;19996;-73
2022/02/23 05:26:44;;;;;;;;;;;22.90;99.90;;;;;;5016516;28;19910;-73
2022/02/23 05:29:11;;;;;;;;;;;22.80;99.90;;;;;;5016694;28;19910;-73
2022/02/23 05:31:38;;;;;;;;;;;22.90;99.90;;;;;;5016908;28;19916;-73
2022/02/23 05:34:04;;;;;;;;;;;22.90;99.90;;;;;;5016540;28;19910;-72
2022/02/23 05:36:31;;;;;;;;;;;22.90;99.90;;;;;;5016375;28;20004;-72
2022/02/23 05:38:57;;;;;;;;;;;22.80;99.90;;;;;;5016393;28;20481;-73
2022/02/23 05:41:24;;;;;;;;;;;22.90;99.90;;;;;;5016165;28;20020;-72
2022/02/23 05:43:51;;;;;;;;;;;22.90;99.90;;;;;;5016367;28;19963;-72
2022/02/23 05:46:19;;;;;;;;;;;22.90;99.90;;;;;;5016227;28;19996;-73
2022/02/23 05:48:45;;;;;;;;;;;22.70;99.90;;;;;;5015994;28;19910;-73
2022/02/23 05:51:46;;;;;;;;;;;22.70;99.90;;;;;;5015252;28;19914;-71
2022/02/23 05:54:13;;;;;;;;;;;22.80;99.90;;;;;;4992400;28;19914;-71
2022/02/23 05:56:40;;;;;;;;;;;23.10;99.90;;;;;;5013816;28;19913;-72
2022/02/23 05:59:08;;;;;;;;;;;23.10;99.90;;;;;;5014128;28;19917;-72
2022/02/23 06:01:35;;;;;;;;;;;23.10;99.90;;;;;;5014289;28;19948;-72
2022/02/23 06:04:02;;;;;;;;;;;23.10;99.90;;;;;;5013738;28;19909;-72
2022/02/23 06:06:29;;;;;;;;;;;23.00;99.90;;;;;;5013328;28;19921;-72
2022/02/23 06:08:55;;;;;;;;;;;23.00;99.90;;;;;;5013909;28;20344;-72
2022/02/23 06:11:22;;;;;;;;;;;23.00;99.90;;;;;;5013710;28;19909;-72
2022/02/23 06:13:52;;;;;;;;;;;23.10;99.90;;;;;;5013614;28;19916;-72
2022/02/23 06:16:19;;;;;;;;;;;23.20;99.90;;;;;;5013649;28;19914;-70
2022/02/23 06:18:46;;;;;;;;;;;23.20;99.90;;;;;;5013427;28;19909;-72
2022/02/23 06:21:12;;;;;;;;;;;22.90;99.90;;;;;;5013591;28;19967;-72
2022/02/23 06:23:39;;;;;;;;;;;22.90;99.90;;;;;;5013800;28;19948;-72
2022/02/23 06:26:06;;;;;;;;;;;22.90;99.90;;;;;;5013651;28;19980;-72
2022/02/23 06:28:33;;;;;;;;;;;22.60;99.90;;;;;;5013885;28;19957;-73
2022/02/23 06:31:00;;;;;;;;;;;22.50;99.90;;;;;;5012625;28;20036;-72
2022/02/23 06:33:28;;;;;;;;;;;22.60;99.90;;;;;;5012406;28;19956;-72
2022/02/23 06:35:55;;;;;;;;;;;22.70;99.90;;;;;;5013631;28;19918;-72
2022/02/23 06:38:21;;;;;;;;;;;22.70;99.90;;;;;;5013413;28;20008;-72
2022/02/23 06:40:51;;;;;;;;;;;22.80;99.90;;;;;;5013168;28;19990;-72
2022/02/23 06:43:19;;;;;;;;;;;22.90;99.90;;;;;;5012736;28;19917;-73
2022/02/23 06:45:46;;;;;;;;;;;23.10;99.90;;;;;;5013178;28;19913;-72
2022/02/23 06:48:13;;;;;;;;;;;23.20;99.90;;;;;;4997457;28;20005;-73
2022/02/23 06:50:40;;;;;;;;;;;23.00;99.90;;;;;;4993462;28;19914;-73
2022/02/23 06:53:07;;;;;;;;;;;22.90;99.90;;;;;;4992898;28;20021;-72
2022/02/23 06:55:34;;;;;;;;;;;22.90;99.90;;;;;;4993551;28;19914;-72
2022/02/23 06:58:01;;;;;;;;;;;22.80;99.90;;;;;;4993281;28;19914;-73
2022/02/23 07:00:28;;;;;;;;;;;22.90;99.90;;;;;;4993012;28;20322;-73
2022/02/23 07:02:55;;;;;;;;;;;22.90;99.90;;;;;;4993146;28;19922;-73
2022/02/23 07:05:21;;;;;;;;;;;23.00;99.90;;;;;;4992637;28;20386;-73
2022/02/23 07:07:48;;;;;;;;;;;22.90;99.90;;;;;;4992392;28;19920;-73
2022/02/23 07:10:21;;;;;;;;;;;22.90;99.90;;;;;;4992933;28;19941;-74
2022/02/23 07:12:47;;;;;;;;;;;22.80;99.90;;;;;;4992506;28;20276;-73
2022/02/23 07:15:14;;;;;;;;;;;22.80;99.90;;;;;;4993002;28;19965;-73
2022/02/23 07:17:41;;;;;;;;;;;22.80;99.90;;;;;;4993119;28;19910;-73
2022/02/23 07:20:10;;;;;;;;;;;22.70;99.90;;;;;;4992910;28;19984;-73
2022/02/23 07:22:37;;;;;;;;;;;22.80;99.90;;;;;;4992315;28;20424;-74
2022/02/23 07:25:04;;;;;;;;;;;22.70;99.90;;;;;;4992831;28;19960;-73
2022/02/23 07:27:31;;;;;;;;;;;22.70;99.90;;;;;;4992985;28;20060;-73
2022/02/23 07:29:58;;;;;;;;;;;22.70;99.90;;;;;;4992788;28;20037;-74
2022/02/23 07:32:28;;;;;;;;;;;22.70;99.90;;;;;;4992495;28;20337;-73
2022/02/23 07:34:55;;;;;;;;;;;22.70;99.90;;;;;;4992287;28;20439;-73
2022/02/23 07:37:22;;;;;;;;;;;22.70;99.90;;;;;;4991888;28;19914;-72
2022/02/23 07:39:51;;;;;;;;;;;22.70;99.90;;;;;;4992026;28;20001;-73
2022/02/23 07:42:19;;;;;;;;;;;22.70;99.90;;;;;;4992460;28;19985;-73
2022/02/23 07:44:46;;;;;;;;;;;22.60;99.90;;;;;;4992125;28;20364;-73
2022/02/23 07:47:14;;;;;;;;;;;22.60;99.90;;;;;;4992295;28;19913;-73
2022/02/23 07:49:41;;;;;;;;;;;22.70;99.90;;;;;;4992428;28;19914;-73
2022/02/23 07:52:08;;;;;;;;;;;22.70;99.90;;;;;;4991188;28;19969;-73
2022/02/23 07:54:34;;;;;;;;;;;22.60;99.90;;;;;;4992294;28;20225;-72
2022/02/23 07:57:01;;;;;;;;;;;22.70;99.90;;;;;;4992286;28;19917;-72
2022/02/23 07:59:28;;;;;;;;;;;22.60;99.90;;;;;;5002065;28;19984;-72
2022/02/23 08:01:54;;;;;;;;;;;22.70;99.90;;;;;;4991965;28;19918;-73
2022/02/23 08:04:21;;;;;;;;;;;22.70;99.90;;;;;;4991056;28;19910;-73
2022/02/23 08:06:48;;;;;;;;;;;22.80;99.90;;;;;;4993158;28;19929;-73
2022/02/23 08:09:14;;;;;;;;;;;22.80;99.90;;;;;;4993860;28;19933;-73
2022/02/23 08:11:41;;;;;;;;;;;22.80;99.90;;;;;;4993722;28;19914;-73
2022/02/23 08:14:09;;;;;;;;;;;22.80;99.90;;;;;;4993887;28;19910;-72
2022/02/23 08:19:34;;;;;;;;;;;22.80;99.90;;;;;;4993871;28;19953;-72
2022/02/23 08:22:03;;;;;;;;;;;22.80;99.90;;;;;;4993040;28;19921;-73
2022/02/23 08:24:30;;;;;;;;;;;22.80;99.90;;;;;;4993550;28;19933;-73
2022/02/23 08:26:58;;;;;;;;;;;22.90;99.90;;;;;;4993304;28;19910;-73
2022/02/23 08:29:25;;;;;;;;;;;22.80;99.90;;;;;;4993615;28;19909;-73
2022/02/23 08:31:52;;;;;;;;;;;22.80;99.90;;;;;;4993394;28;19910;-73
2022/02/23 08:34:19;;;;;;;;;;;22.80;99.90;;;;;;4993485;28;19917;-73
2022/02/23 08:36:46;;;;;;;;;;;22.80;99.90;;;;;;4992923;28;20328;-73
2022/02/23 08:39:13;;;;;;;;;;;22.80;99.90;;;;;;4993494;28;20411;-74
2022/02/23 08:41:40;;;;;;;;;;;22.80;99.90;;;;;;4993634;28;19921;-74
2022/02/23 08:44:07;;;;;;;;;;;22.80;99.90;;;;;;4993406;28;19910;-72
2022/02/23 08:46:34;;;;;;;;;;;22.80;99.90;;;;;;4993437;28;19910;-72
2022/02/23 08:49:01;;;;;;;;;;;22.80;99.90;;;;;;4993193;28;19910;-73
2022/02/23 08:51:29;;;;;;;;;;;22.80;99.90;;;;;;4992684;28;19909;-73
2022/02/23 08:53:55;;;;;;;;;;;22.70;99.90;;;;;;4993088;28;19910;-73
2022/02/23 08:56:22;;;;;;;;;;;22.70;99.90;;;;;;4992983;28;19996;-73
2022/02/23 08:58:49;;;;;;;;;;;22.70;99.90;;;;;;4992739;28;20355;-73
2022/02/23 09:01:16;;;;;;;;;;;22.60;99.90;;;;;;4993326;28;19918;-73
2022/02/23 09:03:43;;;;;;;;;;;22.70;99.90;;;;;;4993257;28;20393;-74
2022/02/23 09:06:10;;;;;;;;;;;22.70;99.90;;;;;;4993149;28;19933;-73
2022/02/23 09:08:37;;;;;;;;;;;22.70;99.90;;;;;;4991938;28;19914;-73
2022/02/23 09:11:04;;;;;;;;;;;22.70;99.90;;;;;;4993291;28;19910;-74
2022/02/23 09:13:31;;;;;;;;;;;22.80;99.90;;;;;;4993006;28;19917;-74
2022/02/23 09:15:57;;;;;;;;;;;22.80;99.90;;;;;;4993083;28;19910;-74
2022/02/23 09:18:24;;;;;;;;;;;22.90;99.90;;;;;;4992959;28;19910;-73
2022/02/23 09:20:50;;;;;;;;;;;22.90;99.90;;;;;;4993008;28;19996;-74
2022/02/23 09:23:19;;;;;;;;;;;22.90;99.90;;;;;;4993098;28;19917;-73
2022/02/23 09:25:46;;;;;;;;;;;22.90;99.90;;;;;;4993346;28;19964;-73
2022/02/23 09:28:13;;;;;;;;;;;22.90;99.90;;;;;;4993131;28;19968;-73
2022/02/23 09:30:39;;;;;;;;;;;22.90;99.90;;;;;;4992968;28;19913;-73
2022/02/23 09:33:06;;;;;;;;;;;22.90;99.90;;;;;;4992998;28;19910;-73
2022/02/23 09:35:34;;;;;;;;;;;23.00;99.90;;;;;;4992946;28;20378;-73
2022/02/23 09:38:01;;;;;;;;;;;23.00;99.90;;;;;;4992813;28;19909;-73
2022/02/23 09:40:31;;;;;;;;;;;23.00;99.90;;;;;;4992708;28;20012;-73
2022/02/23 09:42:57;;;;;;;;;;;23.00;99.90;;;;;;4992849;28;20330;-73
2022/02/23 09:45:24;;;;;;;;;;;23.00;99.90;;;;;;4993185;28;19910;-73
2022/02/23 09:47:51;;;;;;;;;;;23.00;99.90;;;;;;4993189;28;19948;-74
2022/02/23 09:50:21;;;;;;;;;;;23.10;99.90;;;;;;4992822;28;19914;-74
2022/02/23 09:52:49;;;;;;;;;;;23.00;99.90;;;;;;4992661;28;19917;-74
2022/02/23 09:55:16;;;;;;;;;;;23.10;99.90;;;;;;4992605;28;19937;-74
2022/02/23 09:57:43;;;;;;;;;;;23.00;99.90;;;;;;4992745;28;19917;-73
2022/02/23 10:00:10;;;;;;;;;;;23.10;99.90;;;;;;4992632;28;19917;-73
2022/02/23 10:02:37;;;;;;;;;;;23.10;99.90;;;;;;4992678;28;19910;-74
2022/02/23 10:05:04;;;;;;;;;;;23.20;99.90;;;;;;4992403;28;20060;-74
2022/02/23 10:07:37;;;;;;;;;;;23.10;99.90;;;;;;4992803;28;19910;-73
2022/02/23 10:10:05;;;;;;;;;;;23.10;99.90;;;;;;4995932;28;19924;-74
2022/02/23 10:12:32;;;;;;;;;;;23.10;99.90;;;;;;4996310;28;19910;-74
2022/02/23 10:15:06;;;;;;;;;;;23.10;99.90;;;;;;4996093;28;19910;-72
2022/02/23 10:17:40;;;;;;;;;;;23.00;99.90;;;;;;4995604;28;20016;-72
2022/02/23 10:20:20;;;;;;;;;;;23.10;99.90;;;;;;4995877;28;20068;-72
2022/02/23 10:22:48;;;;;;;;;;;22.90;99.90;;;;;;4996134;28;19910;-73
2022/02/23 10:25:20;;;;;;;;;;;22.90;99.90;;;;;;5015012;28;20398;-74
2022/02/23 10:27:47;;;;;;;;;;;22.80;99.90;;;;;;5023637;28;20356;-73
2022/02/23 10:30:25;;;;;;;;;;;22.80;99.90;;;;;;5034035;28;19917;-73
2022/02/23 10:32:56;;;;;;;;;;;22.80;99.90;;;;;;5020248;28;19913;-74
2022/02/23 10:35:26;;;;;;;;;;;22.90;99.90;;;;;;5015647;28;19928;-73
2022/02/23 10:37:53;;;;;;;;;;;22.80;99.90;;;;;;5005120;28;20079;-73
2022/02/23 10:40:19;;;;;;;;;;;22.80;99.90;;;;;;5016519;28;19929;-72
2022/02/23 10:42:46;;;;;;;;;;;22.80;99.90;;;;;;5034370;28;20271;-74
2022/02/23 10:45:17;;;;;;;;;;;22.70;99.90;;;;;;5033965;28;20317;-73
2022/02/23 10:47:47;;;;;;;;;;;22.70;99.90;;;;;;5028686;28;19967;-74
2022/02/23 10:50:15;;;;;;;;;;;22.70;99.90;;;;;;5034036;28;19921;-72
2022/02/23 10:52:42;;;;;;;;;;;22.70;99.90;;;;;;5020459;28;19909;-73
2022/02/23 10:55:22;;;;;;;;;;;22.60;99.90;;;;;;5014886;28;19914;-73
2022/02/23 10:57:54;;;;;;;;;;;22.60;99.90;;;;;;5029014;28;19959;-72
2022/02/23 11:00:22;;;;;;;;;;;22.50;99.90;;;;;;5034203;28;19921;-72
2022/02/23 11:02:49;;;;;;;;;;;22.40;99.90;;;;;;5030795;28;19917;-73
2022/02/23 11:05:16;;;;;;;;;;;22.50;99.90;;;;;;5032318;28;20016;-73
2022/02/23 11:07:44;;;;;;;;;;;22.40;99.90;;;;;;5033677;28;19983;-73
2022/02/23 11:10:15;;;;;;;;;;;22.40;99.90;;;;;;5032531;28;20398;-73
2022/02/23 11:12:45;;;;;;;;;;;22.40;99.90;;;;;;4994898;28;19910;-73
2022/02/23 11:15:13;;;;;;;;;;;22.40;99.90;;;;;;5031393;28;19913;-73
2022/02/23 11:17:40;;;;;;;;;;;22.40;99.90;;;;;;5028971;28;20415;-73
2022/02/23 11:20:07;;;;;;;;;;;22.50;99.90;;;;;;5013223;28;19920;-74
2022/02/23 11:22:34;;;;;;;;;;;22.50;99.90;;;;;;5014183;28;19943;-73
2022/02/23 11:25:01;;;;;;;;;;;22.50;99.90;;;;;;5013119;28;19914;-74
2022/02/23 11:27:31;;;;;;;;;;;22.50;99.90;;;;;;5013705;28;20012;-73
2022/02/23 11:30:05;;;;;;;;;;;22.50;99.90;;;;;;5021835;28;19913;-73
2022/02/23 11:32:39;;;;;;;;;;;22.40;99.90;;;;;;5009380;28;19917;-73
2022/02/23 11:35:11;;;;;;;;;;;22.30;99.90;;;;;;5028805;28;20008;-73
2022/02/23 11:37:40;;;;;;;;;;;22.20;99.90;;;;;;5032899;28;19925;-73
2022/02/23 11:40:10;;;;;;;;;;;22.30;99.90;;;;;;5033713;28;19916;-73
2022/02/23 11:42:37;;;;;;;;;;;22.30;99.90;;;;;;5033826;28;19909;-73
2022/02/23 11:45:10;;;;;;;;;;;22.30;99.90;;;;;;5033225;28;19920;-73
2022/02/23 11:47:55;;;;;;;;;;;22.30;99.90;;;;;;5033347;28;20283;-73
2022/02/23 11:50:40;;;;;;;;;;;22.40;99.90;;;;;;5033454;28;19913;-73
2022/02/23 11:56:15;;;;;;;;;;;22.20;99.90;;;;;;5013656;28;20032;-73
2022/02/23 11:58:52;;;;;;;;;;;22.20;99.90;;;;;;5013800;28;19910;-73
2022/02/23 12:01:22;;;;;;;;;;;22.20;99.90;;;;;;5029419;28;19944;-74
2022/02/23 12:04:08;;;;;;;;;;;22.10;99.90;;;;;;5032893;28;20007;-73
2022/02/23 12:06:53;;;;;;;;;;;22.10;99.90;;;;;;5028115;28;19932;-73
2022/02/23 12:09:38;;;;;;;;;;;22.20;99.90;;;;;;5023403;28;20330;-73
2022/02/23 12:12:09;;;;;;;;;;;22.10;99.90;;;;;;5031338;28;19914;-73
2022/02/23 12:14:51;;;;;;;;;;;22.00;99.90;;;;;;5032624;28;20308;-72
2022/02/23 12:17:36;;;;;;;;;;;22.00;99.90;;;;;;5030672;28;20644;-72
2022/02/23 12:20:02;;;;;;;;;;;21.90;99.90;;;;;;5022065;28;20111;-72
2022/02/23 12:22:33;;;;;;;;;;;21.80;99.90;;;;;;5013249;28;19914;-72
2022/02/23 12:24:59;;;;;;;;;;;21.70;99.90;;;;;;5012971;28;20016;-73
2022/02/23 12:27:29;;;;;;;;;;;21.70;99.90;;;;;;5013127;28;19914;-72
2022/02/23 12:29:56;;;;;;;;;;;21.60;99.90;;;;;;5013537;28;20422;-72
2022/02/23 12:32:26;;;;;;;;;;;21.60;99.90;;;;;;5012637;28;19995;-72
2022/02/23 12:34:57;;;;;;;;;;;21.50;99.90;;;;;;5013375;28;19913;-71
2022/02/23 12:37:24;;;;;;;;;;;21.50;99.90;;;;;;5021879;28;19913;-71
2022/02/23 12:39:51;;;;;;;;;;;21.60;99.90;;;;;;5018382;28;19984;-72
2022/02/23 12:42:18;;;;;;;;;;;21.70;99.90;;;;;;5013146;28;20421;-72
2022/02/23 12:44:47;;;;;;;;;;;21.60;99.90;;;;;;5013010;28;19956;-72
2022/02/23 12:47:17;;;;;;;;;;;21.60;99.90;;;;;;5012982;28;19921;-72
2022/02/23 12:49:45;;;;;;;;;;;21.60;99.90;;;;;;5012723;28;19913;-72
2022/02/23 12:52:12;;;;;;;;;;;21.60;99.90;;;;;;5012996;28;19948;-72
2022/02/23 12:54:39;;;;;;;;;;;21.60;99.90;;;;;;5012726;28;20003;-72
2022/02/23 12:57:06;;;;;;;;;;;21.60;99.90;;;;;;5012755;28;20326;-72
2022/02/23 12:59:33;;;;;;;;;;;21.60;99.90;;;;;;5012459;28;19964;-72
2022/02/23 13:02:02;;;;;;;;;;;21.70;99.90;;;;;;5011947;28;19928;-73
2022/02/23 13:04:34;;;;;;;;;;;21.70;99.90;;;;;;5011348;28;20282;-72
2022/02/23 13:07:04;;;;;;;;;;;21.70;99.90;;;;;;5012366;28;19925;-72
2022/02/23 13:09:35;;;;;;;;;;;21.60;99.90;;;;;;5012998;28;19914;-72
2022/02/23 13:12:04;;;;;;;;;;;21.60;99.90;;;;;;5012901;28;19910;-71
2022/02/23 13:14:33;;;;;;;;;;;21.70;99.90;;;;;;5029808;28;19909;-73
2022/02/23 13:17:01;;;;;;;;;;;21.60;99.90;;;;;;5032488;28;19914;-72
2022/02/23 13:19:33;;;;;;;;;;;21.60;99.90;;;;;;5032577;28;20314;-72
2022/02/23 13:22:01;;;;;;;;;;;21.70;99.90;;;;;;5032580;28;20470;-72
2022/02/23 13:24:30;;;;;;;;;;;21.60;99.90;;;;;;5032327;28;19910;-72
2022/02/23 13:26:57;;;;;;;;;;;21.60;99.90;;;;;;5031563;28;19913;-72
2022/02/23 13:29:24;;;;;;;;;;;21.60;99.90;;;;;;5031690;28;19916;-72
2022/02/23 13:31:54;;;;;;;;;;;21.60;99.90;;;;;;5031371;28;19913;-71
2022/02/23 13:34:21;;;;;;;;;;;21.70;99.90;;;;;;5031298;28;20485;-72
2022/02/23 13:36:48;;;;;;;;;;;21.70;99.90;;;;;;5032129;28;19913;-72
2022/02/23 13:39:18;;;;;;;;;;;21.60;99.90;;;;;;5032195;28;19909;-72
2022/02/23 13:42:04;;;;;;;;;;;21.60;99.90;;;;;;5030207;28;19917;-73
2022/02/23 13:44:32;;;;;;;;;;;21.70;99.90;;;;;;5035937;28;19913;-72
2022/02/23 13:47:02;;;;;;;;;;;21.70;99.90;;;;;;5035597;28;19913;-72
2022/02/23 13:49:29;;;;;;;;;;;21.70;99.90;;;;;;5036121;28;19914;-73
2022/02/23 13:51:57;;;;;;;;;;;21.70;99.90;;;;;;5035140;28;20271;-73
2022/02/23 13:54:24;;;;;;;;;;;21.70;99.90;;;;;;5036147;28;19917;-73
2022/02/23 13:56:50;;;;;;;;;;;21.70;99.90;;;;;;5035545;28;19909;-72
2022/02/23 13:59:18;;;;;;;;;;;21.70;99.90;;;;;;5035436;28;19910;-73
2022/02/23 14:01:57;;;;;;;;;;;21.70;99.90;;;;;;5034756;28;20290;-73
2022/02/23 14:04:34;;;;;;;;;;;21.70;99.90;;;;;;5035771;28;20479;-73
2022/02/23 14:07:01;;;;;;;;;;;21.60;99.90;;;;;;5035478;28;19921;-73
2022/02/23 14:09:27;;;;;;;;;;;21.60;99.90;;;;;;5035733;28;20315;-72
2022/02/23 14:11:58;;;;;;;;;;;21.60;99.90;;;;;;5034746;28;19909;-71
2022/02/23 14:14:25;;;;;;;;;;;21.50;99.90;;;;;;5035947;28;19913;-71
2022/02/23 14:16:52;;;;;;;;;;;21.40;99.90;;;;;;5023248;28;20383;-72
2022/02/23 14:19:23;;;;;;;;;;;21.30;99.90;;;;;;5024383;28;19914;-71
2022/02/23 14:22:03;;;;;;;;;;;21.30;99.90;;;;;;5027003;28;19960;-72
2022/02/23 14:24:33;;;;;;;;;;;21.30;99.90;;;;;;5024286;28;19949;-72
2022/02/23 14:27:02;;;;;;;;;;;21.30;99.90;;;;;;5025309;28;19980;-72
2022/02/23 14:29:29;;;;;;;;;;;21.30;99.90;;;;;;5019075;28;20327;-73